Time;durP1;ratioP1;P1;durP2;ratioP2;P2;SDS_P1;SDS_P2;PMS_P1;PMS_P2;Temp;Humidity;BMP_temperature;BMP_pressure;BME280_temperature;BME280_humidity;BME280_pressure;Samples;Min_cycle;Max_cycle;Signal;HPM_P1;HPM_P2
2024/04/09 00:00:00;;;;;;;;;18.50;13.00;;;;;;;;5413641;26;9592;-73
2024/04/09 00:02:26;;;;;;;;;15.25;11.50;;;;;;;;5413073;26;8804;-73
2024/04/09 00:04:51;;;;;;;;;14.00;14.00;;;;;;;;5413230;26;11254;-72
2024/04/09 00:07:17;;;;;;;;;15.00;14.50;;;;;;;;5413091;26;8858;-72
2024/04/09 00:09:45;;;;;;;;;14.50;13.50;;;;;;;;5413384;26;8824;-73
2024/04/09 00:12:11;;;;;;;;;14.50;13.00;;;;;;;;5413014;26;8891;-73
2024/04/09 00:14:37;;;;;;;;;18.75;13.75;;;;;;;;5413425;26;11519;-73
2024/04/09 00:17:05;;;;;;;;;15.00;13.00;;;;;;;;5413429;26;8812;-74
2024/04/09 00:19:31;;;;;;;;;14.50;13.75;;;;;;;;5413406;26;11497;-73
2024/04/09 00:21:57;;;;;;;;;12.25;11.25;;;;;;;;5413535;26;11546;-74
2024/04/09 00:24:22;;;;;;;;;14.25;13.00;;;;;;;;5413396;26;11564;-75
2024/04/09 00:26:47;;;;;;;;;18.25;14.25;;;;;;;;5413209;26;8828;-75
2024/04/09 00:29:13;;;;;;;;;15.25;12.75;;;;;;;;5412790;26;8850;-73
2024/04/09 00:31:39;;;;;;;;;14.25;13.50;;;;;;;;5412956;26;8862;-74
2024/04/09 00:34:04;;;;;;;;;15.00;15.00;;;;;;;;5412824;26;11528;-73
2024/04/09 00:36:29;;;;;;;;;15.50;14.00;;;;;;;;5412716;26;8840;-74
2024/04/09 00:38:56;;;;;;;;;13.00;13.00;;;;;;;;5412619;26;8805;-74
2024/04/09 00:41:21;;;;;;;;;14.75;13.75;;;;;;;;5411178;26;8839;-74
2024/04/09 00:43:47;;;;;;;;;14.00;13.00;;;;;;;;5412681;26;11552;-74
2024/04/09 00:46:13;;;;;;;;;12.25;12.25;;;;;;;;5413829;26;8903;-74
2024/04/09 00:48:39;;;;;;;;;12.00;12.00;;;;;;;;5413090;26;9649;-74
2024/04/09 00:51:05;;;;;;;;;14.00;13.00;;;;;;;;5410825;26;11568;-74
2024/04/09 00:53:32;;;;;;;;;13.00;13.00;;;;;;;;5412417;26;11596;-75
2024/04/09 00:55:58;;;;;;;;;12.75;12.25;;;;;;;;5412329;26;11506;-74
2024/04/09 00:58:24;;;;;;;;;12.00;12.00;;;;;;;;5410419;26;11557;-75
2024/04/09 01:00:49;;;;;;;;;13.75;13.75;;;;;;;;5410498;26;8843;-79
2024/04/09 01:03:14;;;;;;;;;13.75;13.75;;;;;;;;5410341;26;8886;-75
2024/04/09 01:05:40;;;;;;;;;14.75;14.75;;;;;;;;5408480;26;8904;-75
2024/04/09 01:08:05;;;;;;;;;13.00;13.00;;;;;;;;5411873;26;8836;-75
2024/04/09 01:10:31;;;;;;;;;12.75;9.25;;;;;;;;5409810;26;8832;-76
2024/04/09 01:12:57;;;;;;;;;14.00;12.00;;;;;;;;5411733;26;8829;-75
2024/04/09 01:15:22;;;;;;;;;14.00;13.00;;;;;;;;5409987;26;8864;-75
2024/04/09 01:17:48;;;;;;;;;14.25;12.00;;;;;;;;5411821;26;11639;-76
2024/04/09 01:20:13;;;;;;;;;10.00;7.50;;;;;;;;5410348;26;8824;-76
2024/04/09 01:22:39;;;;;;;;;11.75;11.75;;;;;;;;5411581;26;8836;-76
2024/04/09 01:25:05;;;;;;;;;12.25;12.25;;;;;;;;5412099;26;9584;-77
2024/04/09 01:27:33;;;;;;;;;11.75;9.25;;;;;;;;5400634;26;8903;-76
2024/04/09 01:30:00;;;;;;;;;14.75;13.00;;;;;;;;5411523;26;8821;-76
2024/04/09 01:32:25;;;;;;;;;14.75;12.50;;;;;;;;5411569;26;11605;-76
2024/04/09 01:34:51;;;;;;;;;10.00;10.00;;;;;;;;5411571;26;11541;-76
2024/04/09 01:37:17;;;;;;;;;12.75;12.50;;;;;;;;5411739;26;8919;-76
2024/04/09 01:39:45;;;;;;;;;14.25;9.75;;;;;;;;5410334;26;8910;-75
2024/04/09 01:42:11;;;;;;;;;17.75;12.00;;;;;;;;5409848;26;11537;-75
2024/04/09 01:44:36;;;;;;;;;12.00;12.00;;;;;;;;5411941;26;11597;-77
2024/04/09 01:47:03;;;;;;;;;12.00;12.00;;;;;;;;5412418;26;8863;-76
2024/04/09 01:49:29;;;;;;;;;14.00;12.50;;;;;;;;5409890;26;8839;-75
2024/04/09 01:51:55;;;;;;;;;14.25;13.00;;;;;;;;5415393;26;12724;-76
2024/04/09 01:54:20;;;;;;;;;13.25;12.50;;;;;;;;5415125;26;8840;-75
2024/04/09 01:56:45;;;;;;;;;14.00;12.50;;;;;;;;5415123;26;8836;-76
2024/04/09 01:59:11;;;;;;;;;14.75;12.50;;;;;;;;5415237;26;8888;-75
2024/04/09 02:01:37;;;;;;;;;13.50;12.50;;;;;;;;5415193;26;8964;-75
2024/04/09 02:04:02;;;;;;;;;12.50;12.00;;;;;;;;5414891;26;11588;-76
2024/04/09 02:06:30;;;;;;;;;15.75;12.50;;;;;;;;5412921;26;8866;-76
2024/04/09 02:08:55;;;;;;;;;13.75;12.25;;;;;;;;5414893;26;8875;-74
2024/04/09 02:11:25;;;;;;;;;13.00;12.50;;;;;;;;5414786;26;11567;-76
2024/04/09 02:13:50;;;;;;;;;12.00;10.75;;;;;;;;5415074;26;8827;-75
2024/04/09 02:16:21;;;;;;;;;13.50;12.00;;;;;;;;5415150;26;11598;-75
2024/04/09 02:18:46;;;;;;;;;11.75;11.00;;;;;;;;5415423;26;9604;-76
2024/04/09 02:21:14;;;;;;;;;14.50;9.00;;;;;;;;5415301;26;11521;-76
2024/04/09 02:23:42;;;;;;;;;14.00;12.75;;;;;;;;5413100;26;8879;-75
2024/04/09 02:26:09;;;;;;;;;14.00;11.50;;;;;;;;5415301;26;11625;-76
2024/04/09 02:28:34;;;;;;;;;13.25;12.50;;;;;;;;5414783;26;11543;-76
2024/04/09 02:30:59;;;;;;;;;12.00;10.75;;;;;;;;5412810;26;11581;-76
2024/04/09 02:33:25;;;;;;;;;12.00;12.00;;;;;;;;5414894;26;8855;-75
2024/04/09 02:35:57;;;;;;;;;12.00;11.00;;;;;;;;5414875;26;8824;-76
2024/04/09 02:38:23;;;;;;;;;14.00;12.00;;;;;;;;5414576;26;8848;-75
2024/04/09 02:40:48;;;;;;;;;12.25;12.25;;;;;;;;5414616;26;11558;-76
2024/04/09 02:43:14;;;;;;;;;17.00;14.00;;;;;;;;5414355;26;11590;-76
2024/04/09 02:45:39;;;;;;;;;14.00;13.00;;;;;;;;5412659;26;8836;-76
2024/04/09 02:48:06;;;;;;;;;16.50;12.75;;;;;;;;5414714;26;12362;-75
2024/04/09 02:50:31;;;;;;;;;12.00;10.50;;;;;;;;5414282;26;8844;-75
2024/04/09 02:52:56;;;;;;;;;13.50;13.25;;;;;;;;5412486;26;12296;-76
2024/04/09 02:55:22;;;;;;;;;16.00;14.00;;;;;;;;5414141;26;8816;-76
2024/04/09 02:57:48;;;;;;;;;13.50;13.50;;;;;;;;5414610;26;8968;-76
2024/04/09 03:00:23;;;;;;;;;13.25;13.25;;;;;;;;5414054;26;8920;-76
2024/04/09 03:02:51;;;;;;;;;13.25;12.50;;;;;;;;5413724;26;11589;-76
2024/04/09 03:05:17;;;;;;;;;12.00;11.00;;;;;;;;5412472;26;11362;-76
2024/04/09 03:07:44;;;;;;;;;14.50;14.50;;;;;;;;5413657;26;11596;-77
2024/04/09 03:10:13;;;;;;;;;15.25;12.25;;;;;;;;5414478;26;9529;-76
2024/04/09 03:12:39;;;;;;;;;12.00;11.25;;;;;;;;5414456;26;11553;-76
2024/04/09 03:15:05;;;;;;;;;12.00;11.00;;;;;;;;5414135;26;11574;-76
2024/04/09 03:17:30;;;;;;;;;13.50;13.50;;;;;;;;5413957;26;8820;-76
2024/04/09 03:19:55;;;;;;;;;3.00;2.50;;;;;;;;5413698;26;11676;-76
2024/04/09 03:22:21;;;;;;;;;13.25;12.50;;;;;;;;5413963;26;8880;-76
2024/04/09 03:24:49;;;;;;;;;14.75;13.50;;;;;;;;5414042;26;8940;-76
2024/04/09 03:27:14;;;;;;;;;14.25;13.00;;;;;;;;5414130;26;8858;-76
2024/04/09 03:29:39;;;;;;;;;12.50;11.00;;;;;;;;5413677;26;11562;-76
2024/04/09 03:32:05;;;;;;;;;15.50;13.00;;;;;;;;5413434;26;8847;-76
2024/04/09 03:34:30;;;;;;;;;16.50;12.25;;;;;;;;5413900;26;8852;-76
2024/04/09 03:36:56;;;;;;;;;13.50;12.00;;;;;;;;5413391;26;8860;-76
2024/04/09 03:39:21;;;;;;;;;16.25;13.00;;;;;;;;5413732;26;9110;-75
2024/04/09 03:41:48;;;;;;;;;16.25;12.25;;;;;;;;5413621;26;8848;-75
2024/04/09 03:44:13;;;;;;;;;13.25;13.25;;;;;;;;5413903;26;8993;-75
2024/04/09 03:46:38;;;;;;;;;14.00;12.50;;;;;;;;5413756;26;11574;-75
2024/04/09 03:49:05;;;;;;;;;16.25;15.50;;;;;;;;5413435;26;8820;-75
2024/04/09 03:51:30;;;;;;;;;17.50;16.00;;;;;;;;5413641;26;8828;-76
2024/04/09 03:53:55;;;;;;;;;13.75;11.50;;;;;;;;5413472;26;11752;-75
2024/04/09 03:56:21;;;;;;;;;18.25;13.50;;;;;;;;5413186;26;8848;-75
2024/04/09 03:58:47;;;;;;;;;13.25;13.25;;;;;;;;5411418;26;8840;-76
2024/04/09 04:01:13;;;;;;;;;13.00;11.25;;;;;;;;5413318;26;8828;-76
2024/04/09 04:03:40;;;;;;;;;13.00;12.25;;;;;;;;5413295;26;11535;-76
2024/04/09 04:06:05;;;;;;;;;13.25;12.75;;;;;;;;5411607;26;8934;-76
2024/04/09 04:08:31;;;;;;;;;12.75;12.75;;;;;;;;5410955;26;11623;-78
2024/04/09 04:10:57;;;;;;;;;12.50;11.75;;;;;;;;5413432;26;8855;-76
2024/04/09 04:13:23;;;;;;;;;13.75;12.00;;;;;;;;5412621;26;11624;-77
2024/04/09 04:16:05;;;;;;;;;14.50;14.00;;;;;;;;5413181;26;8836;-76
2024/04/09 04:18:35;;;;;;;;;17.50;15.00;;;;;;;;5413162;26;11603;-76
2024/04/09 04:21:00;;;;;;;;;13.00;12.75;;;;;;;;5411201;26;11615;-76
2024/04/09 04:23:25;;;;;;;;;22.00;19.00;;;;;;;;5411130;26;11663;-77
2024/04/09 04:26:04;;;;;;;;;19.00;17.00;;;;;;;;5409139;26;8860;-76
2024/04/09 04:28:30;;;;;;;;;16.00;14.00;;;;;;;;5410851;26;8895;-75
2024/04/09 04:30:55;;;;;;;;;13.25;12.75;;;;;;;;5412462;26;11635;-75
2024/04/09 04:33:20;;;;;;;;;13.50;11.50;;;;;;;;5410816;26;8891;-76
2024/04/09 04:35:46;;;;;;;;;12.25;12.25;;;;;;;;5412444;26;8863;-75
2024/04/09 04:38:11;;;;;;;;;13.00;12.00;;;;;;;;5412037;26;8848;-75
2024/04/09 04:40:36;;;;;;;;;14.50;14.00;;;;;;;;5412317;26;8848;-75
2024/04/09 04:43:02;;;;;;;;;16.50;13.00;;;;;;;;5410378;26;8859;-75
2024/04/09 04:45:28;;;;;;;;;12.50;11.50;;;;;;;;5412250;26;9041;-75
2024/04/09 04:47:53;;;;;;;;;14.75;13.25;;;;;;;;5412796;26;8847;-75
2024/04/09 04:50:19;;;;;;;;;16.25;14.75;;;;;;;;5407393;26;11711;-75
2024/04/09 04:52:44;;;;;;;;;15.00;13.00;;;;;;;;5412655;26;8824;-75
2024/04/09 04:55:09;;;;;;;;;12.00;10.25;;;;;;;;5412527;26;8848;-73
2024/04/09 04:57:34;;;;;;;;;12.00;12.00;;;;;;;;5413285;26;8866;-75
2024/04/09 05:00:00;;;;;;;;;12.75;12.50;;;;;;;;5410735;26;8828;-76
2024/04/09 05:02:27;;;;;;;;;17.75;15.50;;;;;;;;5412806;26;8852;-70
2024/04/09 05:04:53;;;;;;;;;15.50;14.25;;;;;;;;5412867;26;9865;-69
2024/04/09 05:07:22;;;;;;;;;1.75;0.00;;;;;;;;5410753;26;11718;-70
2024/04/09 05:09:48;;;;;;;;;18.50;18.25;;;;;;;;5413204;26;8854;-70
2024/04/09 05:12:13;;;;;;;;;37.75;34.50;;;;;;;;5413103;26;11626;-70
2024/04/09 05:14:38;;;;;;;;;14.00;14.00;;;;;;;;5412649;26;11696;-71
2024/04/09 05:17:04;;;;;;;;;12.00;12.00;;;;;;;;5411835;26;8824;-76
2024/04/09 05:19:29;;;;;;;;;19.25;19.25;;;;;;;;5208619;26;90535;-77
2024/04/09 05:21:54;;;;;;;;;14.00;14.00;;;;;;;;5341056;26;8851;-75
2024/04/09 05:24:20;;;;;;;;;12.50;10.50;;;;;;;;5340578;26;8862;-77
2024/04/09 05:26:45;;;;;;;;;17.00;17.00;;;;;;;;5340817;26;8964;-75
2024/04/09 05:29:10;;;;;;;;;19.75;17.00;;;;;;;;5341047;26;8847;-80
2024/04/09 05:31:35;;;;;;;;;20.00;13.00;;;;;;;;5325834;26;8858;-76
2024/04/09 05:34:01;;;;;;;;;16.25;12.50;;;;;;;;5322558;26;8952;-75
2024/04/09 05:36:31;;;;;;;;;15.00;12.50;;;;;;;;5340270;26;8870;-75
2024/04/09 05:38:56;;;;;;;;;12.50;12.50;;;;;;;;5340011;26;8878;-76
2024/04/09 05:41:22;;;;;;;;;14.50;13.25;;;;;;;;5324560;26;12494;-75
2024/04/09 05:43:47;;;;;;;;;12.00;12.00;;;;;;;;5329828;26;8866;-76
2024/04/09 05:46:12;;;;;;;;;11.25;9.00;;;;;;;;5345359;26;8854;-79
2024/04/09 05:48:38;;;;;;;;;17.00;13.50;;;;;;;;5325160;26;8863;-76
2024/04/09 05:51:03;;;;;;;;;17.25;16.00;;;;;;;;5319116;26;8858;-81
2024/04/09 05:53:28;;;;;;;;;15.00;12.50;;;;;;;;5310601;27;8877;-77
2024/04/09 05:55:54;;;;;;;;;13.50;13.50;;;;;;;;5310299;27;8858;-74
2024/04/09 05:58:20;;;;;;;;;12.00;12.00;;;;;;;;5310491;26;8870;-77
2024/04/09 06:00:46;;;;;;;;;17.50;13.75;;;;;;;;5308793;26;11688;-77
2024/04/09 06:03:12;;;;;;;;;11.00;11.00;;;;;;;;5310541;27;8874;-78
2024/04/09 06:05:38;;;;;;;;;15.00;14.00;;;;;;;;5310403;26;8858;-78
2024/04/09 06:08:03;;;;;;;;;17.00;15.00;;;;;;;;5336036;26;11756;-81
2024/04/09 06:10:29;;;;;;;;;13.00;13.00;;;;;;;;5345254;26;8862;-80
2024/04/09 06:12:54;;;;;;;;;12.00;12.00;;;;;;;;5372232;26;8854;-80
2024/04/09 06:15:21;;;;;;;;;16.00;12.25;;;;;;;;5344736;26;8942;-81
2024/04/09 06:17:47;;;;;;;;;15.00;13.00;;;;;;;;5310927;26;8958;-78
2024/04/09 06:20:12;;;;;;;;;16.00;13.00;;;;;;;;5310200;26;11685;-75
2024/04/09 06:22:38;;;;;;;;;9.25;7.75;;;;;;;;5310347;26;8866;-78
2024/04/09 06:25:03;;;;;;;;;14.00;12.00;;;;;;;;5310391;26;8858;-78
2024/04/09 06:27:28;;;;;;;;;21.00;14.00;;;;;;;;5307848;26;8850;-78
2024/04/09 06:29:54;;;;;;;;;14.75;13.25;;;;;;;;5308374;26;8846;-79
2024/04/09 06:32:19;;;;;;;;;15.25;13.75;;;;;;;;5308060;26;8850;-78
2024/04/09 06:34:44;;;;;;;;;16.50;14.00;;;;;;;;5310769;27;8858;-77
2024/04/09 06:37:09;;;;;;;;;20.75;16.25;;;;;;;;5322403;26;9595;-78
2024/04/09 06:39:35;;;;;;;;;19.75;19.75;;;;;;;;5344548;26;8874;-77
2024/04/09 06:42:02;;;;;;;;;35.00;28.50;;;;;;;;5344386;26;8834;-78
2024/04/09 06:44:27;;;;;;;;;33.50;30.50;;;;;;;;5342738;26;8940;-78
2024/04/09 06:46:53;;;;;;;;;55.25;41.00;;;;;;;;5344856;26;12426;-77
2024/04/09 06:49:18;;;;;;;;;34.00;33.75;;;;;;;;5344596;26;9576;-78
2024/04/09 06:51:43;;;;;;;;;25.75;25.50;;;;;;;;5364313;26;8862;-78
2024/04/09 06:54:08;;;;;;;;;34.25;26.25;;;;;;;;5309783;26;8858;-80
2024/04/09 06:56:34;;;;;;;;;34.00;27.25;;;;;;;;5309675;26;8850;-78
2024/04/09 06:58:59;;;;;;;;;27.75;24.25;;;;;;;;5309711;26;8850;-77
2024/04/09 07:01:28;;;;;;;;;29.75;28.00;;;;;;;;5309715;26;8913;-78
2024/04/09 07:03:53;;;;;;;;;30.25;27.00;;;;;;;;5309467;26;8906;-79
2024/04/09 07:06:19;;;;;;;;;25.25;20.00;;;;;;;;5310129;26;11700;-78
2024/04/09 07:08:45;;;;;;;;;25.50;25.50;;;;;;;;5345141;26;8846;-77
2024/04/09 07:11:10;;;;;;;;;30.50;25.25;;;;;;;;5343798;26;9734;-77
2024/04/09 07:13:36;;;;;;;;;31.25;25.75;;;;;;;;5344128;26;11661;-78
2024/04/09 07:16:01;;;;;;;;;24.50;23.50;;;;;;;;5344008;26;8851;-77
2024/04/09 07:18:27;;;;;;;;;27.50;24.50;;;;;;;;5344373;26;9584;-76
2024/04/09 07:20:52;;;;;;;;;27.50;25.00;;;;;;;;5344292;26;9552;-77
2024/04/09 07:23:18;;;;;;;;;27.25;26.00;;;;;;;;5342184;26;11727;-77
2024/04/09 07:25:43;;;;;;;;;28.75;27.50;;;;;;;;5343672;26;9008;-76
2024/04/09 07:28:08;;;;;;;;;24.25;24.25;;;;;;;;5343932;26;8858;-79
2024/04/09 07:30:37;;;;;;;;;33.00;26.50;;;;;;;;5344253;26;9051;-79
2024/04/09 07:33:02;;;;;;;;;31.75;30.00;;;;;;;;5343986;26;8870;-80
2024/04/09 07:35:28;;;;;;;;;29.25;23.75;;;;;;;;5341899;26;11680;-80
2024/04/09 07:37:54;;;;;;;;;30.75;27.00;;;;;;;;5343804;26;9657;-80
2024/04/09 07:40:19;;;;;;;;;27.25;24.00;;;;;;;;5343674;26;8862;-82
2024/04/09 07:42:45;;;;;;;;;29.50;28.25;;;;;;;;5343797;26;11677;-82
2024/04/09 07:45:11;;;;;;;;;31.00;27.25;;;;;;;;5343900;26;8889;-81
2024/04/09 07:47:36;;;;;;;;;36.00;31.00;;;;;;;;5340565;26;11775;-78
2024/04/09 07:50:08;;;;;;;;;37.25;36.00;;;;;;;;5343652;26;8854;-79
2024/04/09 07:52:34;;;;;;;;;19.50;16.50;;;;;;;;5343665;26;8979;-74
2024/04/09 07:55:00;;;;;;;;;33.75;31.00;;;;;;;;5343262;26;11632;-78
2024/04/09 07:57:26;;;;;;;;;32.75;32.00;;;;;;;;5343339;26;9576;-76
2024/04/09 07:59:51;;;;;;;;;28.25;26.25;;;;;;;;5343414;26;11721;-74
2024/04/09 08:02:16;;;;;;;;;25.50;24.25;;;;;;;;5343851;26;8854;-75
2024/04/09 08:04:41;;;;;;;;;29.00;26.00;;;;;;;;5343426;26;9095;-75
2024/04/09 08:07:07;;;;;;;;;26.25;24.50;;;;;;;;5343288;26;8847;-75
2024/04/09 08:09:32;;;;;;;;;26.75;22.25;;;;;;;;5343080;26;8830;-75
2024/04/09 08:11:58;;;;;;;;;25.00;21.50;;;;;;;;5343386;26;8862;-75
2024/04/09 08:14:23;;;;;;;;;23.75;22.50;;;;;;;;5343028;26;8877;-77
2024/04/09 08:16:49;;;;;;;;;22.50;21.75;;;;;;;;5342968;26;9600;-75
2024/04/09 08:19:14;;;;;;;;;25.75;23.50;;;;;;;;5343033;26;8951;-75
2024/04/09 08:21:39;;;;;;;;;20.00;20.00;;;;;;;;5343224;26;8847;-76
2024/04/09 08:24:04;;;;;;;;;19.75;18.50;;;;;;;;5343219;26;8834;-74
2024/04/09 08:26:30;;;;;;;;;23.00;23.00;;;;;;;;5342437;26;8850;-66
2024/04/09 08:28:57;;;;;;;;;25.00;22.75;;;;;;;;5342745;26;8881;-68
2024/04/09 08:31:29;;;;;;;;;27.75;24.00;;;;;;;;5342637;26;8851;-65
2024/04/09 08:33:54;;;;;;;;;27.50;25.25;;;;;;;;5342494;26;11601;-67
2024/04/09 08:36:19;;;;;;;;;25.00;25.00;;;;;;;;5342877;26;10810;-67
2024/04/09 08:38:45;;;;;;;;;28.00;27.00;;;;;;;;5342426;26;8892;-67
2024/04/09 08:41:10;;;;;;;;;30.25;29.00;;;;;;;;5342561;26;8846;-68
2024/04/09 08:43:36;;;;;;;;;24.50;22.50;;;;;;;;5339521;26;9595;-66
2024/04/09 08:46:02;;;;;;;;;36.25;31.00;;;;;;;;5341020;26;8823;-67
2024/04/09 08:48:28;;;;;;;;;32.50;30.00;;;;;;;;5342752;26;10798;-67
2024/04/09 08:50:55;;;;;;;;;36.50;30.75;;;;;;;;5340399;26;8843;-67
2024/04/09 08:53:22;;;;;;;;;39.75;33.00;;;;;;;;5340541;26;8910;-68
2024/04/09 08:55:48;;;;;;;;;33.25;30.25;;;;;;;;5341007;26;11067;-67
2024/04/09 08:58:13;;;;;;;;;34.75;30.75;;;;;;;;5342272;26;10617;-67
2024/04/09 09:00:38;;;;;;;;;31.75;29.75;;;;;;;;5342862;26;8839;-67
2024/04/09 09:03:04;;;;;;;;;36.00;32.50;;;;;;;;5342941;26;8909;-67
2024/04/09 09:05:30;;;;;;;;;34.50;30.75;;;;;;;;5342516;26;8858;-67
2024/04/09 09:07:59;;;;;;;;;34.75;31.00;;;;;;;;5342359;26;8850;-68
2024/04/09 09:10:24;;;;;;;;;20.75;19.00;;;;;;;;5342427;26;8951;-67
2024/04/09 09:12:59;;;;;;;;;29.00;28.75;;;;;;;;5342232;26;9789;-67
2024/04/09 09:15:26;;;;;;;;;32.25;29.75;;;;;;;;5340168;26;8869;-67
2024/04/09 09:17:52;;;;;;;;;29.75;28.50;;;;;;;;5342143;26;9785;-67
2024/04/09 09:20:17;;;;;;;;;32.00;29.00;;;;;;;;5341837;26;10359;-67
2024/04/09 09:22:43;;;;;;;;;28.00;27.67;;;;;;;;5341824;26;11585;-67
2024/04/09 09:25:14;;;;;;;;;27.00;27.00;;;;;;;;5342273;26;8877;-67
2024/04/09 09:27:41;;;;;;;;;28.00;27.00;;;;;;;;5341915;26;10038;-67
2024/04/09 09:30:06;;;;;;;;;31.67;28.67;;;;;;;;5341665;26;9330;-67
2024/04/09 09:32:31;;;;;;;;;27.00;25.00;;;;;;;;5341752;26;9348;-67
2024/04/09 09:35:00;;;;;;;;;23.67;23.67;;;;;;;;5342281;26;8883;-67
2024/04/09 09:37:27;;;;;;;;;27.50;25.00;;;;;;;;5342284;26;8854;-67
2024/04/09 09:39:55;;;;;;;;;27.33;24.00;;;;;;;;5341640;26;8861;-67
2024/04/09 09:42:21;;;;;;;;;29.00;27.00;;;;;;;;5341512;26;9704;-67
2024/04/09 09:44:48;;;;;;;;;26.75;24.25;;;;;;;;5341586;26;9659;-67
2024/04/09 09:47:15;;;;;;;;;25.00;23.00;;;;;;;;5342214;26;8822;-67
2024/04/09 09:49:41;;;;;;;;;27.00;26.33;;;;;;;;5341539;26;8842;-67
2024/04/09 09:52:06;;;;;;;;;27.67;25.33;;;;;;;;5341452;26;9000;-67
2024/04/09 09:54:32;;;;;;;;;25.67;22.00;;;;;;;;5341407;26;8859;-67
2024/04/09 09:57:00;;;;;;;;;20.67;20.67;;;;;;;;5341402;26;8853;-67
2024/04/09 09:59:29;;;;;;;;;22.00;22.00;;;;;;;;5341034;26;8846;-67
2024/04/09 10:01:56;;;;;;;;;19.00;18.25;;;;;;;;5368476;26;8881;-67
2024/04/09 10:04:24;;;;;;;;;20.50;18.75;;;;;;;;5341396;26;8861;-67
2024/04/09 10:06:56;;;;;;;;;18.00;16.00;;;;;;;;5341134;26;8984;-67
2024/04/09 10:09:56;;;;;;;;;20.00;16.00;;;;;;;;5341118;26;8810;-67
2024/04/09 10:12:32;;;;;;;;;20.75;17.75;;;;;;;;5306094;27;8866;-67
2024/04/09 10:14:58;;;;;;;;;17.75;17.75;;;;;;;;5307185;26;8937;-67
2024/04/09 10:17:29;;;;;;;;;14.33;14.33;;;;;;;;5306810;26;8970;-67
2024/04/09 10:19:55;;;;;;;;;15.00;15.00;;;;;;;;5306567;27;8892;-68
2024/04/09 10:22:20;;;;;;;;;12.67;12.67;;;;;;;;5306548;26;8838;-66
2024/04/09 10:24:46;;;;;;;;;19.00;17.67;;;;;;;;5307046;26;8929;-67
2024/04/09 10:27:13;;;;;;;;;19.00;18.00;;;;;;;;5301196;26;9013;-66
2024/04/09 10:29:48;;;;;;;;;19.00;16.25;;;;;;;;5288294;26;8847;-66
2024/04/09 10:32:17;;;;;;;;;18.25;17.00;;;;;;;;5289278;26;8884;-67
2024/04/09 10:34:43;;;;;;;;;16.50;14.75;;;;;;;;5290985;26;8839;-67
2024/04/09 10:37:08;;;;;;;;;15.33;15.00;;;;;;;;5287658;26;8873;-66
2024/04/09 10:39:34;;;;;;;;;4.00;4.00;;;;;;;;5288702;26;8873;-66
2024/04/09 10:41:59;;;;;;;;;14.25;14.25;;;;;;;;5279691;26;8960;-66
2024/04/09 10:44:25;;;;;;;;;17.00;17.00;;;;;;;;5306491;26;8858;-66
2024/04/09 10:46:50;;;;;;;;;21.67;17.67;;;;;;;;5332834;26;8873;-66
2024/04/09 10:49:17;;;;;;;;;15.00;10.67;;;;;;;;5344057;26;8892;-67
2024/04/09 10:51:43;;;;;;;;;16.25;14.50;;;;;;;;5344271;26;8893;-67
2024/04/09 10:54:12;;;;;;;;;16.75;15.00;;;;;;;;5334521;26;9622;-66
2024/04/09 10:56:38;;;;;;;;;15.67;15.00;;;;;;;;5308677;26;9076;-67
2024/04/09 10:59:12;;;;;;;;;16.33;15.33;;;;;;;;5310004;26;9070;-68
2024/04/09 11:01:38;;;;;;;;;18.00;15.33;;;;;;;;5309399;26;8875;-67
2024/04/09 11:04:03;;;;;;;;;17.67;17.00;;;;;;;;5309577;26;9134;-67
2024/04/09 11:06:29;;;;;;;;;11.33;11.33;;;;;;;;5312530;26;8850;-68
2024/04/09 11:08:54;;;;;;;;;15.67;15.33;;;;;;;;5342879;26;8858;-67
2024/04/09 11:11:19;;;;;;;;;14.67;14.67;;;;;;;;5328290;26;8831;-68
2024/04/09 11:13:45;;;;;;;;;15.67;13.33;;;;;;;;5326406;26;8838;-67
2024/04/09 11:16:16;;;;;;;;;15.67;15.67;;;;;;;;5326148;26;8990;-67
2024/04/09 11:18:42;;;;;;;;;18.67;17.00;;;;;;;;5338903;26;8870;-67
2024/04/09 11:21:07;;;;;;;;;20.67;18.33;;;;;;;;5370874;26;9252;-68
2024/04/09 11:23:33;;;;;;;;;18.33;16.00;;;;;;;;5343738;26;9693;-68
2024/04/09 11:25:59;;;;;;;;;25.00;21.50;;;;;;;;5341637;26;8884;-68
2024/04/09 11:28:25;;;;;;;;;16.00;16.00;;;;;;;;5343859;26;8823;-68
2024/04/09 11:30:54;;;;;;;;;16.00;15.33;;;;;;;;5343485;26;9360;-68
2024/04/09 11:33:20;;;;;;;;;19.00;17.33;;;;;;;;5343640;26;8858;-68
2024/04/09 11:35:51;;;;;;;;;18.67;17.67;;;;;;;;5343539;26;9343;-68
2024/04/09 11:38:17;;;;;;;;;16.67;15.33;;;;;;;;5344115;26;9320;-68
2024/04/09 11:40:42;;;;;;;;;14.33;11.00;;;;;;;;5343033;26;9276;-67
2024/04/09 11:43:10;;;;;;;;;8.00;8.00;;;;;;;;5329564;26;8902;-67
2024/04/09 11:45:38;;;;;;;;;10.00;9.00;;;;;;;;5326588;26;9565;-67
2024/04/09 11:48:04;;;;;;;;;7.25;7.25;;;;;;;;5309963;26;9103;-68
2024/04/09 11:50:29;;;;;;;;;8.00;8.00;;;;;;;;5325282;26;8854;-68
2024/04/09 11:52:54;;;;;;;;;11.00;8.33;;;;;;;;5326636;26;9702;-68
2024/04/09 11:55:20;;;;;;;;;10.00;8.00;;;;;;;;5322737;26;8843;-67
2024/04/09 11:57:46;;;;;;;;;7.67;6.00;;;;;;;;5326375;26;8912;-68
2024/04/09 12:00:14;;;;;;;;;7.00;7.00;;;;;;;;5326050;26;8811;-69
2024/04/09 12:02:40;;;;;;;;;9.67;7.00;;;;;;;;5323479;26;8849;-68
2024/04/09 12:05:08;;;;;;;;;6.67;5.67;;;;;;;;5326658;26;9056;-68
2024/04/09 12:07:33;;;;;;;;;6.33;6.33;;;;;;;;5317601;26;8835;-68
2024/04/09 12:10:05;;;;;;;;;9.33;7.33;;;;;;;;5308631;26;9144;-68
2024/04/09 12:12:30;;;;;;;;;9.67;8.00;;;;;;;;5308271;26;8850;-66
2024/04/09 12:14:56;;;;;;;;;9.67;8.33;;;;;;;;5308497;26;9322;-66
2024/04/09 12:17:21;;;;;;;;;6.00;6.00;;;;;;;;5308591;26;8838;-67
2024/04/09 12:19:47;;;;;;;;;10.00;7.33;;;;;;;;5307998;26;8849;-66
2024/04/09 12:22:15;;;;;;;;;8.00;7.00;;;;;;;;5308238;26;8921;-66
2024/04/09 12:24:41;;;;;;;;;7.67;7.67;;;;;;;;5308315;26;8863;-67
2024/04/09 12:27:06;;;;;;;;;10.00;10.00;;;;;;;;5308415;26;8966;-65
2024/04/09 12:29:32;;;;;;;;;7.00;6.00;;;;;;;;5308305;26;8874;-67
2024/04/09 12:32:01;;;;;;;;;5.33;5.33;;;;;;;;5308347;26;8846;-68
2024/04/09 12:34:28;;;;;;;;;7.00;6.00;;;;;;;;5334319;26;8904;-67
2024/04/09 12:36:53;;;;;;;;;6.67;5.33;;;;;;;;5317165;26;9096;-66
2024/04/09 12:39:19;;;;;;;;;7.00;5.67;;;;;;;;5342461;26;9247;-67
2024/04/09 12:41:44;;;;;;;;;7.00;7.00;;;;;;;;5342215;26;9643;-67
2024/04/09 12:44:10;;;;;;;;;8.00;7.00;;;;;;;;5342770;26;8866;-67
2024/04/09 12:46:36;;;;;;;;;5.67;5.67;;;;;;;;5340491;26;8843;-67
2024/04/09 12:49:01;;;;;;;;;8.00;7.00;;;;;;;;5341839;26;8827;-68
2024/04/09 12:51:26;;;;;;;;;6.67;6.67;;;;;;;;5369354;26;8874;-68
2024/04/09 12:53:52;;;;;;;;;7.00;5.67;;;;;;;;5342414;26;8901;-71
2024/04/09 12:56:20;;;;;;;;;4.00;4.00;;;;;;;;5342290;26;8861;-68
2024/04/09 12:58:45;;;;;;;;;4.33;3.00;;;;;;;;5342231;26;9586;-66
2024/04/09 13:01:10;;;;;;;;;4.33;3.33;;;;;;;;5342442;26;9103;-67
2024/04/09 13:03:36;;;;;;;;;4.00;4.00;;;;;;;;5341708;26;8976;-69
2024/04/09 13:06:01;;;;;;;;;6.00;5.00;;;;;;;;5342767;26;8865;-69
2024/04/09 13:08:27;;;;;;;;;4.00;4.00;;;;;;;;5311173;26;8881;-69
2024/04/09 13:10:52;;;;;;;;;5.00;5.00;;;;;;;;5308194;26;8866;-69
2024/04/09 13:13:18;;;;;;;;;5.00;5.00;;;;;;;;5307745;26;8949;-69
2024/04/09 13:15:43;;;;;;;;;4.00;4.00;;;;;;;;5308146;26;8893;-69
2024/04/09 13:18:08;;;;;;;;;5.00;5.00;;;;;;;;5307863;26;8877;-69
2024/04/09 13:20:34;;;;;;;;;4.00;4.00;;;;;;;;5307643;26;8842;-69
2024/04/09 13:22:59;;;;;;;;;4.33;4.33;;;;;;;;5307811;26;8899;-69
2024/04/09 13:25:24;;;;;;;;;4.00;4.00;;;;;;;;5334699;26;8842;-70
2024/04/09 13:27:49;;;;;;;;;4.00;4.00;;;;;;;;5307895;26;9522;-70
2024/04/09 13:30:15;;;;;;;;;4.00;4.00;;;;;;;;5307845;26;8842;-70
2024/04/09 13:32:40;;;;;;;;;3.00;3.00;;;;;;;;5307748;26;8897;-69
2024/04/09 13:35:06;;;;;;;;;3.33;3.00;;;;;;;;5305524;26;8862;-67
2024/04/09 13:37:32;;;;;;;;;3.00;3.00;;;;;;;;5307778;26;8834;-67
2024/04/09 13:39:58;;;;;;;;;2.33;2.00;;;;;;;;5307042;26;8910;-66
2024/04/09 13:42:23;;;;;;;;;4.00;3.00;;;;;;;;5307317;26;8937;-67
2024/04/09 13:44:49;;;;;;;;;3.00;2.33;;;;;;;;5312114;26;8846;-66
2024/04/09 13:47:14;;;;;;;;;3.00;3.00;;;;;;;;5325752;26;8859;-67
2024/04/09 13:49:39;;;;;;;;;3.00;3.00;;;;;;;;5328356;26;8944;-67
2024/04/09 13:52:05;;;;;;;;;4.00;4.00;;;;;;;;5327944;26;9608;-67
2024/04/09 13:54:30;;;;;;;;;5.33;4.00;;;;;;;;5324507;26;8874;-67
2024/04/09 13:56:55;;;;;;;;;4.00;4.00;;;;;;;;5328719;26;8838;-67
2024/04/09 13:59:21;;;;;;;;;3.33;3.33;;;;;;;;5319393;26;8846;-67
2024/04/09 14:01:46;;;;;;;;;2.00;2.00;;;;;;;;5310597;26;8877;-67
2024/04/09 14:04:12;;;;;;;;;1.67;1.67;;;;;;;;5312829;26;8979;-67
2024/04/09 14:06:37;;;;;;;;;2.67;2.00;;;;;;;;5324712;26;8850;-67
2024/04/09 14:09:03;;;;;;;;;3.00;3.00;;;;;;;;5354700;26;8853;-66
2024/04/09 14:11:28;;;;;;;;;3.00;3.00;;;;;;;;5325707;26;8878;-66
2024/04/09 14:13:54;;;;;;;;;2.00;2.00;;;;;;;;5339089;26;8862;-67
2024/04/09 14:16:20;;;;;;;;;3.00;3.00;;;;;;;;5332065;26;8835;-67
2024/04/09 14:18:46;;;;;;;;;2.00;2.00;;;;;;;;5326861;26;8831;-68
2024/04/09 14:21:13;;;;;;;;;4.33;3.00;;;;;;;;5324732;26;9060;-67
2024/04/09 14:23:38;;;;;;;;;4.00;4.00;;;;;;;;5327855;26;9044;-67
2024/04/09 14:26:05;;;;;;;;;6.00;4.00;;;;;;;;5318846;26;8960;-68